Time,TemperatureF,DewpointF,PressureIn,WindDirection,WindDirectionDegrees,WindSpeedMPH,WindSpeedGustMPH,Humidity,HourlyPrecipIn,Conditions,Clouds,dailyrainin,SoftwareType,DateUTC
2013-12-30 00:00:00,32.7,30.1,29.73,NW,315,7.0,7.0,90,0.00,,,0.00,Wunderground v.1.15,2013-12-30 05:00:00,
2013-12-30 00:02:00,32.6,30.0,29.73,WNW,291,6.0,8.0,90,0.00,,,0.00,Wunderground v.1.15,2013-12-30 05:02:00,
2013-12-30 00:04:00,32.5,30.2,29.73,NW,322,6.0,8.0,91,0.00,,,0.00,Wunderground v.1.15,2013-12-30 05:04:00,
2013-12-30 00:08:00,32.2,29.6,29.73,NW,309,6.0,8.0,90,0.00,,,0.00,Wunderground v.1.15,2013-12-30 05:08:00,
2013-12-30 00:10:00,32.1,29.8,29.74,WNW,296,6.0,6.0,91,0.00,,,0.00,Wunderground v.1.15,2013-12-30 05:10:00,
2013-12-30 00:16:00,31.7,29.4,29.74,NW,320,7.0,9.0,91,0.00,,,0.00,Wunderground v.1.15,2013-12-30 05:16:00,
2013-12-30 00:20:00,31.3,29.0,29.74,NNW,330,7.0,8.0,91,0.00,,,0.00,Wunderground v.1.15,2013-12-30 05:20:00,
2013-12-30 00:22:00,31.2,28.9,29.74,NNW,341,7.0,8.0,91,0.00,,,0.00,Wunderground v.1.15,2013-12-30 05:22:00,
2013-12-30 00:28:00,30.7,28.4,29.75,NNW,337,7.0,13.0,91,0.00,,,0.00,Wunderground v.1.15,2013-12-30 05:28:00,
2013-12-30 00:34:00,29.9,27.6,29.75,WSW,247,9.0,16.0,91,0.00,,,0.00,Wunderground v.1.15,2013-12-30 05:34:00,
2013-12-30 00:40:00,29.6,27.0,29.76,North,350,8.0,8.0,90,0.00,,,0.00,Wunderground v.1.15,2013-12-30 05:40:00,
2013-12-30 00:46:00,29.4,26.8,29.77,West,262,7.0,8.0,90,0.00,,,0.00,Wunderground v.1.15,2013-12-30 05:46:00,
2013-12-30 00:52:00,29.2,26.9,29.77,NW,325,6.0,8.0,91,0.00,,,0.00,Wunderground v.1.15,2013-12-30 05:52:00,
2013-12-30 00:58:00,29.0,26.7,29.77,NW,309,5.0,8.0,91,0.00,,,0.00,Wunderground v.1.15,2013-12-30 05:58:00,
2013-12-30 01:04:00,28.6,26.0,29.78,West,279,6.0,9.0,90,0.00,,,0.00,Wunderground v.1.15,2013-12-30 06:04:00,
2013-12-30 01:10:00,28.4,25.8,29.77,WNW,296,7.0,10.0,90,0.00,,,0.00,Wunderground v.1.15,2013-12-30 06:10:00,
2013-12-30 01:16:00,28.3,25.5,29.78,NNW,346,7.0,10.0,89,0.00,,,0.00,Wunderground v.1.15,2013-12-30 06:16:00,
2013-12-30 01:22:00,28.3,25.5,29.78,WNW,287,6.0,10.0,89,0.00,,,0.00,Wunderground v.1.15,2013-12-30 06:22:00,
2013-12-30 01:28:00,28.3,25.5,29.78,NW,323,7.0,12.0,89,0.00,,,0.00,Wunderground v.1.15,2013-12-30 06:28:00,
2013-12-30 01:34:00,28.3,25.5,29.79,West,277,6.0,8.0,89,0.00,,,0.00,Wunderground v.1.15,2013-12-30 06:34:00,
2013-12-30 01:40:00,28.3,25.5,29.80,West,280,5.0,5.0,89,0.00,,,0.00,Wunderground v.1.15,2013-12-30 06:40:00,
2013-12-30 01:46:00,28.3,25.5,29.80,WNW,293,4.0,8.0,89,0.00,,,0.00,Wunderground v.1.15,2013-12-30 06:46:00,
2013-12-30 01:52:00,28.2,25.4,29.80,WNW,286,4.0,6.0,89,0.00,,,0.00,Wunderground v.1.15,2013-12-30 06:52:00,
2013-12-30 01:58:00,28.1,25.0,29.81,West,279,5.0,8.0,88,0.00,,,0.00,Wunderground v.1.15,2013-12-30 06:58:00,
2013-12-30 02:04:00,28.1,25.0,29.81,WSW,237,4.0,8.0,88,0.00,,,0.00,Wunderground v.1.15,2013-12-30 07:04:00,
2013-12-30 02:10:00,28.1,25.0,29.82,NNW,328,4.0,4.0,88,0.00,,,0.00,Wunderground v.1.15,2013-12-30 07:10:00,
2013-12-30 02:16:00,28.2,25.4,29.82,WNW,298,3.0,8.0,89,0.00,,,0.00,Wunderground v.1.15,2013-12-30 07:16:00,
2013-12-30 02:22:00,28.1,25.0,29.83,WSW,254,4.0,8.0,88,0.00,,,0.00,Wunderground v.1.15,2013-12-30 07:22:00,
2013-12-30 02:29:00,28.2,25.4,29.83,West,272,4.0,8.0,89,0.00,,,0.00,Wunderground v.1.15,2013-12-30 07:29:00,
2013-12-30 02:35:00,28.2,25.1,29.83,NE,50,6.0,13.0,88,0.00,,,0.00,Wunderground v.1.15,2013-12-30 07:35:00,
2013-12-30 02:41:00,28.1,24.7,29.84,WNW,284,7.0,9.0,87,0.00,,,0.00,Wunderground v.1.15,2013-12-30 07:41:00,
2013-12-30 02:47:00,27.9,24.0,29.84,West,262,8.0,16.0,85,0.00,,,0.00,Wunderground v.1.15,2013-12-30 07:47:00,
2013-12-30 02:53:00,27.7,23.5,29.85,West,279,8.0,8.0,84,0.00,,,0.00,Wunderground v.1.15,2013-12-30 07:53:00,
2013-12-30 02:58:00,27.6,23.1,29.85,NW,324,6.0,8.0,83,0.00,,,0.00,Wunderground v.1.15,2013-12-30 07:58:00,
2013-12-30 03:04:00,27.4,22.6,29.86,WSW,258,7.0,8.0,82,0.00,,,0.00,Wunderground v.1.15,2013-12-30 08:04:00,
2013-12-30 03:10:00,27.2,22.1,29.86,West,277,7.0,13.0,81,0.00,,,0.00,Wunderground v.1.15,2013-12-30 08:10:00,
2013-12-30 03:17:00,27.0,21.4,29.87,West,268,8.0,15.0,79,0.00,,,0.00,Wunderground v.1.15,2013-12-30 08:17:00,
2013-12-30 03:23:00,26.9,21.6,29.87,WNW,282,8.0,14.0,80,0.00,,,0.00,Wunderground v.1.15,2013-12-30 08:23:00,
2013-12-30 03:29:00,26.7,21.4,29.87,SW,230,7.0,14.0,80,0.00,,,0.00,Wunderground v.1.15,2013-12-30 08:29:00,
2013-12-30 03:35:00,26.6,21.0,29.87,WSW,251,7.0,12.0,79,0.00,,,0.00,Wunderground v.1.15,2013-12-30 08:35:00,
2013-12-30 03:41:00,26.4,20.8,29.88,SW,222,9.0,9.0,79,0.00,,,0.00,Wunderground v.1.15,2013-12-30 08:41:00,
2013-12-30 03:47:00,26.2,20.9,29.88,West,272,7.0,9.0,80,0.00,,,0.00,Wunderground v.1.15,2013-12-30 08:47:00,
2013-12-30 03:53:00,26.0,20.7,29.89,NW,306,7.0,11.0,80,0.00,,,0.00,Wunderground v.1.15,2013-12-30 08:53:00,
2013-12-30 03:58:00,25.9,20.6,29.89,West,274,8.0,11.0,80,0.00,,,0.00,Wunderground v.1.15,2013-12-30 08:58:00,
2013-12-30 04:04:00,25.7,21.0,29.89,NNW,346,8.0,9.0,82,0.00,,,0.00,Wunderground v.1.15,2013-12-30 09:04:00,
2013-12-30 04:10:00,25.5,20.8,29.90,West,264,8.0,9.0,82,0.00,,,0.00,Wunderground v.1.15,2013-12-30 09:10:00,
2013-12-30 04:16:00,25.4,20.7,29.90,West,259,8.0,12.0,82,0.00,,,0.00,Wunderground v.1.15,2013-12-30 09:16:00,
2013-12-30 04:22:00,25.3,21.1,29.91,WNW,302,7.0,8.0,84,0.00,,,0.00,Wunderground v.1.15,2013-12-30 09:22:00,
2013-12-30 04:28:00,24.8,21.2,29.91,WNW,288,8.0,10.0,86,0.00,,,0.00,Wunderground v.1.15,2013-12-30 09:28:00,
2013-12-30 04:34:00,24.4,20.8,29.92,WNW,296,8.0,9.0,86,0.00,,,0.00,Wunderground v.1.15,2013-12-30 09:34:00,
2013-12-30 04:40:00,24.2,20.3,29.93,West,273,8.0,8.0,85,0.00,,,0.00,Wunderground v.1.15,2013-12-30 09:40:00,
2013-12-30 04:46:00,24.0,19.9,29.93,NW,321,7.0,12.0,84,0.00,,,0.00,Wunderground v.1.15,2013-12-30 09:46:00,
2013-12-30 04:52:00,23.9,19.2,29.94,NNW,327,8.0,8.0,82,0.00,,,0.00,Wunderground v.1.15,2013-12-30 09:52:00,
2013-12-30 04:58:00,23.9,18.9,29.94,NW,304,6.0,8.0,81,0.00,,,0.00,Wunderground v.1.15,2013-12-30 09:58:00,
2013-12-30 05:04:00,23.9,18.9,29.94,NW,304,7.0,8.0,81,0.00,,,0.00,Wunderground v.1.15,2013-12-30 10:04:00,
2013-12-30 05:10:00,23.8,18.8,29.95,NNW,336,8.0,8.0,81,0.00,,,0.00,Wunderground v.1.15,2013-12-30 10:10:00,
2013-12-30 05:16:00,23.7,19.6,29.96,NW,309,7.0,12.0,84,0.00,,,0.00,Wunderground v.1.15,2013-12-30 10:16:00,
2013-12-30 05:22:00,23.3,19.2,29.96,NNW,329,7.0,9.0,84,0.00,,,0.00,Wunderground v.1.15,2013-12-30 10:22:00,
2013-12-30 05:28:00,23.0,18.6,29.97,NW,314,8.0,9.0,83,0.00,,,0.00,Wunderground v.1.15,2013-12-30 10:28:00,
2013-12-30 05:34:00,22.6,17.9,29.98,WNW,300,9.0,12.0,82,0.00,,,0.00,Wunderground v.1.15,2013-12-30 10:34:00,
2013-12-30 05:40:00,22.4,17.5,29.98,NW,323,8.0,13.0,81,0.00,,,0.00,Wunderground v.1.15,2013-12-30 10:40:00,
2013-12-30 05:46:00,22.3,16.8,29.99,NW,320,10.0,13.0,79,0.00,,,0.00,Wunderground v.1.15,2013-12-30 10:46:00,
2013-12-30 05:52:00,22.2,17.0,29.99,NNW,327,10.0,13.0,80,0.00,,,0.00,Wunderground v.1.15,2013-12-30 10:52:00,
2013-12-30 05:58:00,22.0,17.1,30.00,WNW,295,9.0,13.0,81,0.00,,,0.00,Wunderground v.1.15,2013-12-30 10:58:00,
2013-12-30 06:04:00,21.9,16.4,30.01,West,271,8.0,11.0,79,0.00,,,0.00,Wunderground v.1.15,2013-12-30 11:04:00,
2013-12-30 06:10:00,21.8,16.0,30.01,NW,326,8.0,8.0,78,0.00,,,0.00,Wunderground v.1.15,2013-12-30 11:10:00,
2013-12-30 06:16:00,21.7,15.9,30.02,West,263,8.0,11.0,78,0.00,,,0.00,Wunderground v.1.15,2013-12-30 11:16:00,
2013-12-30 06:22:00,21.6,16.1,30.02,West,264,7.0,8.0,79,0.00,,,0.00,Wunderground v.1.15,2013-12-30 11:22:00,
2013-12-30 06:28:00,21.6,15.8,30.03,North,5,7.0,8.0,78,0.00,,,0.00,Wunderground v.1.15,2013-12-30 11:28:00,
2013-12-30 06:34:00,21.5,15.7,30.03,North,5,7.0,18.0,78,0.00,,,0.00,Wunderground v.1.15,2013-12-30 11:34:00,
2013-12-30 06:40:00,21.3,15.2,30.04,NNW,338,9.0,9.0,77,0.00,,,0.00,Wunderground v.1.15,2013-12-30 11:40:00,
2013-12-30 06:46:00,21.1,14.7,30.05,NNW,328,9.0,18.0,76,0.00,,,0.00,Wunderground v.1.15,2013-12-30 11:46:00,
2013-12-30 06:52:00,21.0,14.9,30.05,WNW,303,8.0,11.0,77,0.00,,,0.00,Wunderground v.1.15,2013-12-30 11:52:00,
2013-12-30 06:58:00,20.8,14.7,30.06,NW,305,7.0,18.0,77,0.00,,,0.00,Wunderground v.1.15,2013-12-30 11:58:00,
2013-12-30 07:04:00,20.7,14.6,30.07,NNW,331,6.0,18.0,77,0.00,,,0.00,Wunderground v.1.15,2013-12-30 12:04:00,
2013-12-30 07:10:00,20.4,13.4,30.07,WSW,247,6.0,6.0,74,0.00,,,0.00,Wunderground v.1.15,2013-12-30 12:10:00,
2013-12-30 07:16:00,20.3,13.6,30.08,WSW,258,6.0,18.0,75,0.00,,,0.00,Wunderground v.1.15,2013-12-30 12:16:00,
2013-12-30 07:22:00,20.2,13.8,30.08,West,274,7.0,18.0,76,0.00,,,0.00,Wunderground v.1.15,2013-12-30 12:22:00,
2013-12-30 07:28:00,20.1,14.3,30.09,NW,310,9.0,18.0,78,0.00,,,0.00,Wunderground v.1.15,2013-12-30 12:28:00,
2013-12-30 07:34:00,20.1,14.3,30.09,NNW,327,8.0,18.0,78,0.00,,,0.00,Wunderground v.1.15,2013-12-30 12:34:00,
2013-12-30 07:40:00,19.9,12.9,30.09,NNW,342,8.0,8.0,74,0.00,,,0.00,Wunderground v.1.15,2013-12-30 12:40:00,
2013-12-30 07:46:00,19.8,13.2,30.10,West,270,9.0,18.0,75,0.00,,,0.00,Wunderground v.1.15,2013-12-30 12:46:00,
2013-12-30 07:52:00,19.7,14.2,30.10,NW,313,8.0,18.0,79,0.00,,,0.00,Wunderground v.1.15,2013-12-30 12:52:00,
2013-12-30 07:58:00,19.4,15.1,30.11,NW,325,7.0,18.0,83,0.00,,,0.00,Wunderground v.1.15,2013-12-30 12:58:00,
2013-12-30 08:04:00,19.1,15.1,30.11,NNW,330,5.0,18.0,84,0.00,,,0.00,Wunderground v.1.15,2013-12-30 13:04:00,
2013-12-30 08:10:00,19.0,14.7,30.11,NW,315,5.0,18.0,83,0.00,,,0.00,Wunderground v.1.15,2013-12-30 13:10:00,
2013-12-30 08:16:00,19.1,14.5,30.11,NNW,347,7.0,18.0,82,0.00,,,0.00,Wunderground v.1.15,2013-12-30 13:16:00,
2013-12-30 08:22:00,19.3,14.7,30.11,NW,319,6.0,8.0,82,0.00,,,0.00,Wunderground v.1.15,2013-12-30 13:22:00,
2013-12-30 08:28:00,19.4,14.5,30.11,NW,316,5.0,18.0,81,0.00,,,0.00,Wunderground v.1.15,2013-12-30 13:28:00,
2013-12-30 08:34:00,19.3,14.7,30.12,NNW,333,6.0,18.0,82,0.00,,,0.00,Wunderground v.1.15,2013-12-30 13:34:00,
2013-12-30 08:40:00,19.3,15.3,30.12,NW,322,5.0,18.0,84,0.00,,,0.00,Wunderground v.1.15,2013-12-30 13:40:00,
2013-12-30 08:46:00,19.2,15.2,30.12,NW,325,6.0,18.0,84,0.00,,,0.00,Wunderground v.1.15,2013-12-30 13:46:00,
2013-12-30 08:52:00,19.1,15.3,30.12,NNW,330,7.0,18.0,85,0.00,,,0.00,Wunderground v.1.15,2013-12-30 13:52:00,
2013-12-30 08:58:00,19.0,15.2,30.13,NNW,330,7.0,18.0,85,0.00,,,0.00,Wunderground v.1.15,2013-12-30 13:58:00,
2013-12-30 09:04:00,18.9,15.1,30.13,NNW,329,7.0,18.0,85,0.00,,,0.00,Wunderground v.1.15,2013-12-30 14:04:00,
2013-12-30 09:10:00,18.8,14.8,30.14,NNW,340,8.0,8.0,84,0.00,,,0.00,Wunderground v.1.15,2013-12-30 14:10:00,
2013-12-30 09:16:00,19.2,15.4,30.14,NW,321,7.0,18.0,85,0.00,,,0.00,Wunderground v.1.15,2013-12-30 14:16:00,
2013-12-30 09:22:00,19.2,15.4,30.14,NNW,340,6.0,18.0,85,0.00,,,0.00,Wunderground v.1.15,2013-12-30 14:22:00,
2013-12-30 09:28:00,19.0,15.2,30.14,NNW,338,8.0,18.0,85,0.00,,,0.00,Wunderground v.1.15,2013-12-30 14:28:00,
2013-12-30 09:34:00,18.6,14.8,30.14,NNW,331,9.0,18.0,85,0.00,,,0.00,Wunderground v.1.15,2013-12-30 14:34:00,
2013-12-30 09:40:00,18.4,14.6,30.14,NNW,338,9.0,18.0,85,0.00,,,0.00,Wunderground v.1.15,2013-12-30 14:40:00,
2013-12-30 09:46:00,18.3,14.3,30.15,NNW,340,9.0,18.0,84,0.00,,,0.00,Wunderground v.1.15,2013-12-30 14:46:00,
2013-12-30 09:52:00,18.5,14.7,30.15,NNW,338,8.0,18.0,85,0.00,,,0.00,Wunderground v.1.15,2013-12-30 14:52:00,
2013-12-30 09:58:00,18.4,14.6,30.16,NNW,348,7.0,18.0,85,0.00,,,0.00,Wunderground v.1.15,2013-12-30 14:58:00,
2013-12-30 10:04:00,18.5,14.7,30.16,NW,316,7.0,18.0,85,0.00,,,0.00,Wunderground v.1.15,2013-12-30 15:04:00,
2013-12-30 10:10:00,18.6,15.1,30.17,NNW,343,6.0,18.0,86,0.00,,,0.00,Wunderground v.1.15,2013-12-30 15:10:00,
2013-12-30 10:16:00,18.6,14.8,30.17,North,360,6.0,18.0,85,0.00,,,0.00,Wunderground v.1.15,2013-12-30 15:16:00,
2013-12-30 10:22:00,18.8,14.5,30.17,NNW,338,7.0,18.0,83,0.00,,,0.00,Wunderground v.1.15,2013-12-30 15:22:00,
2013-12-30 10:28:00,18.6,14.3,30.17,NNW,336,8.0,18.0,83,0.00,,,0.00,Wunderground v.1.15,2013-12-30 15:28:00,
2013-12-30 10:34:00,19.0,14.7,30.17,NW,323,7.0,18.0,83,0.00,,,0.00,Wunderground v.1.15,2013-12-30 15:34:00,
2013-12-30 10:40:00,18.9,14.6,30.17,NW,321,8.0,18.0,83,0.00,,,0.00,Wunderground v.1.15,2013-12-30 15:40:00,
2013-12-30 10:46:00,18.9,14.6,30.17,North,355,7.0,18.0,83,0.00,,,0.00,Wunderground v.1.15,2013-12-30 15:46:00,
2013-12-30 10:52:00,19.1,14.8,30.18,NNW,334,7.0,18.0,83,0.00,,,0.00,Wunderground v.1.15,2013-12-30 15:52:00,
2013-12-30 10:58:00,19.4,15.4,30.18,NW,306,5.0,18.0,84,0.00,,,0.00,Wunderground v.1.15,2013-12-30 15:58:00,
2013-12-30 11:04:00,19.1,13.9,30.18,NW,318,6.0,18.0,80,0.00,,,0.00,Wunderground v.1.15,2013-12-30 16:04:00,
2013-12-30 11:10:00,19.0,13.8,30.18,NW,325,7.0,18.0,80,0.00,,,0.00,Wunderground v.1.15,2013-12-30 16:10:00,
2013-12-30 11:16:00,19.3,14.1,30.18,NW,309,7.0,18.0,80,0.00,,,0.00,Wunderground v.1.15,2013-12-30 16:16:00,
2013-12-30 11:22:00,19.0,13.3,30.18,NW,309,8.0,18.0,78,0.00,,,0.00,Wunderground v.1.15,2013-12-30 16:22:00,
2013-12-30 11:28:00,19.0,13.6,30.18,NNW,342,8.0,18.0,79,0.00,,,0.00,Wunderground v.1.15,2013-12-30 16:28:00,
2013-12-30 11:34:00,19.2,14.0,30.18,NNW,342,7.0,10.0,80,0.00,,,0.00,Wunderground v.1.15,2013-12-30 16:34:00,
2013-12-30 11:40:00,18.8,13.9,30.19,NNW,330,8.0,18.0,81,0.00,,,0.00,Wunderground v.1.15,2013-12-30 16:40:00,
2013-12-30 11:46:00,18.5,13.6,30.19,NNW,342,9.0,18.0,81,0.00,,,0.00,Wunderground v.1.15,2013-12-30 16:46:00,
2013-12-30 11:52:00,18.4,13.5,30.19,NNW,331,8.0,18.0,81,0.00,,,0.00,Wunderground v.1.15,2013-12-30 16:52:00,
2013-12-30 11:58:00,18.2,12.2,30.20,WNW,284,7.0,18.0,77,0.00,,,0.00,Wunderground v.1.15,2013-12-30 16:58:00,
2013-12-30 12:04:00,18.7,13.0,30.19,West,263,6.0,18.0,78,0.00,,,0.00,Wunderground v.1.15,2013-12-30 17:04:00,
2013-12-30 12:10:00,19.1,13.4,30.20,WNW,300,6.0,6.0,78,0.00,,,0.00,Wunderground v.1.15,2013-12-30 17:10:00,
2013-12-30 12:16:00,19.4,13.9,30.19,NNW,329,7.0,18.0,79,0.00,,,0.00,Wunderground v.1.15,2013-12-30 17:16:00,
2013-12-30 12:22:00,19.1,13.1,30.18,NNW,347,8.0,18.0,77,0.00,,,0.00,Wunderground v.1.15,2013-12-30 17:22:00,
2013-12-30 12:28:00,18.9,12.9,30.18,NW,315,8.0,18.0,77,0.00,,,0.00,Wunderground v.1.15,2013-12-30 17:28:00,
2013-12-30 12:34:00,18.6,12.3,30.18,NNW,330,8.0,18.0,76,0.00,,,0.00,Wunderground v.1.15,2013-12-30 17:34:00,
2013-12-30 12:40:00,19.0,13.3,30.18,NNW,330,6.0,6.0,78,0.00,,,0.00,Wunderground v.1.15,2013-12-30 17:40:00,
2013-12-30 12:46:00,19.4,13.4,30.18,NNW,346,6.0,18.0,77,0.00,,,0.00,Wunderground v.1.15,2013-12-30 17:46:00,
2013-12-30 12:52:00,19.6,13.3,30.18,NNW,335,6.0,7.0,76,0.00,,,0.00,Wunderground v.1.15,2013-12-30 17:52:00,
2013-12-30 12:58:00,19.5,13.2,30.19,NW,322,7.0,18.0,76,0.00,,,0.00,Wunderground v.1.15,2013-12-30 17:58:00,
2013-12-30 13:04:00,19.1,12.5,30.19,North,355,7.0,18.0,75,0.00,,,0.00,Wunderground v.1.15,2013-12-30 18:04:00,
2013-12-30 13:10:00,19.3,12.7,30.19,NW,320,7.0,7.0,75,0.00,,,0.00,Wunderground v.1.15,2013-12-30 18:10:00,
2013-12-30 13:16:00,19.1,12.2,30.19,NW,321,7.0,18.0,74,0.00,,,0.00,Wunderground v.1.15,2013-12-30 18:16:00,
2013-12-30 13:22:00,19.4,12.8,30.20,NW,324,7.0,8.0,75,0.00,,,0.00,Wunderground v.1.15,2013-12-30 18:22:00,
2013-12-30 13:28:00,19.4,12.5,30.19,WNW,290,6.0,18.0,74,0.00,,,0.00,Wunderground v.1.15,2013-12-30 18:28:00,
2013-12-30 13:34:00,19.3,12.4,30.19,NNW,329,6.0,18.0,74,0.00,,,0.00,Wunderground v.1.15,2013-12-30 18:34:00,
2013-12-30 13:40:00,19.2,12.9,30.19,NNW,342,6.0,18.0,76,0.00,,,0.00,Wunderground v.1.15,2013-12-30 18:40:00,
2013-12-30 13:46:00,18.8,12.8,30.19,NW,320,7.0,18.0,77,0.00,,,0.00,Wunderground v.1.15,2013-12-30 18:46:00,
2013-12-30 13:52:00,18.5,12.8,30.19,NW,317,8.0,18.0,78,0.00,,,0.00,Wunderground v.1.15,2013-12-30 18:52:00,
2013-12-30 13:58:00,18.3,13.2,30.19,NNW,333,6.0,18.0,80,0.00,,,0.00,Wunderground v.1.15,2013-12-30 18:58:00,
2013-12-30 14:04:00,18.2,13.1,30.19,NW,323,6.0,18.0,80,0.00,,,0.00,Wunderground v.1.15,2013-12-30 19:04:00,
2013-12-30 14:10:00,18.2,12.8,30.19,NW,309,6.0,6.0,79,0.00,,,0.00,Wunderground v.1.15,2013-12-30 19:10:00,
2013-12-30 14:16:00,18.5,12.5,30.20,West,275,6.0,18.0,77,0.00,,,0.00,Wunderground v.1.15,2013-12-30 19:16:00,
2013-12-30 14:22:00,18.4,11.8,30.19,NW,320,5.0,18.0,75,0.00,,,0.00,Wunderground v.1.15,2013-12-30 19:22:00,
2013-12-30 14:28:00,19.2,12.9,30.19,NNW,348,5.0,18.0,76,0.00,,,0.00,Wunderground v.1.15,2013-12-30 19:28:00,
2013-12-30 14:34:00,19.3,12.7,30.19,NNW,338,6.0,18.0,75,0.00,,,0.00,Wunderground v.1.15,2013-12-30 19:34:00,
2013-12-30 14:40:00,19.0,13.0,30.19,NNW,327,7.0,18.0,77,0.00,,,0.00,Wunderground v.1.15,2013-12-30 19:40:00,
2013-12-30 14:46:00,18.6,12.3,30.19,NW,318,8.0,18.0,76,0.00,,,0.00,Wunderground v.1.15,2013-12-30 19:46:00,
2013-12-30 14:52:00,18.2,12.2,30.20,NW,325,8.0,18.0,77,0.00,,,0.00,Wunderground v.1.15,2013-12-30 19:52:00,
2013-12-30 14:58:00,18.0,11.7,30.20,NW,325,7.0,18.0,76,0.00,,,0.00,Wunderground v.1.15,2013-12-30 19:58:00,
2013-12-30 15:04:00,17.8,11.8,30.20,NW,323,6.0,18.0,77,0.00,,,0.00,Wunderground v.1.15,2013-12-30 20:04:00,
2013-12-30 15:10:00,17.7,12.0,30.20,NNW,329,6.0,18.0,78,0.00,,,0.00,Wunderground v.1.15,2013-12-30 20:10:00,
2013-12-30 15:16:00,17.5,12.1,30.20,WNW,288,5.0,18.0,79,0.00,,,0.00,Wunderground v.1.15,2013-12-30 20:16:00,
2013-12-30 15:22:00,17.7,12.3,30.20,NNW,327,4.0,18.0,79,0.00,,,0.00,Wunderground v.1.15,2013-12-30 20:22:00,
2013-12-30 15:28:00,17.9,11.9,30.20,NW,326,5.0,18.0,77,0.00,,,0.00,Wunderground v.1.15,2013-12-30 20:28:00,
2013-12-30 15:34:00,18.1,12.1,30.21,NW,323,5.0,18.0,77,0.00,,,0.00,Wunderground v.1.15,2013-12-30 20:34:00,
2013-12-30 15:40:00,18.3,12.3,30.21,NW,326,5.0,5.0,77,0.00,,,0.00,Wunderground v.1.15,2013-12-30 20:40:00,
2013-12-30 15:46:00,18.2,11.6,30.21,NNW,331,5.0,18.0,75,0.00,,,0.00,Wunderground v.1.15,2013-12-30 20:46:00,
2013-12-30 15:52:00,18.0,11.1,30.20,WSW,242,5.0,18.0,74,0.00,,,0.00,Wunderground v.1.15,2013-12-30 20:52:00,
2013-12-30 15:58:00,17.9,11.0,30.21,NW,315,5.0,18.0,74,0.00,,,0.00,Wunderground v.1.15,2013-12-30 20:58:00,
2013-12-30 16:04:00,17.7,10.8,30.21,WNW,299,4.0,18.0,74,0.00,,,0.00,Wunderground v.1.15,2013-12-30 21:04:00,
2013-12-30 16:10:00,17.7,11.1,30.21,NW,311,5.0,18.0,75,0.00,,,0.00,Wunderground v.1.15,2013-12-30 21:10:00,
2013-12-30 16:16:00,17.6,11.0,30.21,NW,322,4.0,18.0,75,0.00,,,0.00,Wunderground v.1.15,2013-12-30 21:16:00,
2013-12-30 16:22:00,17.5,11.2,30.21,NNW,340,4.0,18.0,76,0.00,,,0.00,Wunderground v.1.15,2013-12-30 21:22:00,
2013-12-30 16:28:00,17.3,11.0,30.21,WNW,302,4.0,18.0,76,0.00,,,0.00,Wunderground v.1.15,2013-12-30 21:28:00,
2013-12-30 16:34:00,17.2,11.2,30.22,WNW,298,3.0,18.0,77,0.00,,,0.00,Wunderground v.1.15,2013-12-30 21:34:00,
2013-12-30 16:40:00,17.1,11.1,30.22,NW,304,2.0,18.0,77,0.00,,,0.00,Wunderground v.1.15,2013-12-30 21:40:00,
2013-12-30 16:46:00,17.0,11.0,30.22,NW,322,3.0,18.0,77,0.00,,,0.00,Wunderground v.1.15,2013-12-30 21:46:00,
2013-12-30 16:52:00,17.0,11.3,30.22,NW,317,2.0,18.0,78,0.00,,,0.00,Wunderground v.1.15,2013-12-30 21:52:00,
2013-12-30 16:58:00,16.7,10.7,30.23,NW,314,1.0,18.0,77,0.00,,,0.00,Wunderground v.1.15,2013-12-30 21:58:00,
2013-12-30 17:04:00,16.5,10.8,30.23,NW,313,1.0,18.0,78,0.00,,,0.00,Wunderground v.1.15,2013-12-30 22:04:00,
2013-12-30 17:10:00,16.5,10.8,30.22,WNW,300,2.0,2.0,78,0.00,,,0.00,Wunderground v.1.15,2013-12-30 22:10:00,
2013-12-30 17:16:00,16.4,10.7,30.22,West,270,1.0,18.0,78,0.00,,,0.00,Wunderground v.1.15,2013-12-30 22:16:00,
2013-12-30 17:22:00,16.3,10.9,30.22,WNW,298,1.0,18.0,79,0.00,,,0.00,Wunderground v.1.15,2013-12-30 22:22:00,
2013-12-30 17:28:00,16.2,10.8,30.23,WNW,297,1.0,18.0,79,0.00,,,0.00,Wunderground v.1.15,2013-12-30 22:28:00,
2013-12-30 17:34:00,16.2,11.1,30.23,WNW,292,2.0,18.0,80,0.00,,,0.00,Wunderground v.1.15,2013-12-30 22:34:00,
2013-12-30 17:40:00,16.2,11.1,30.23,West,268,2.0,2.0,80,0.00,,,0.00,Wunderground v.1.15,2013-12-30 22:40:00,
2013-12-30 17:46:00,16.4,11.3,30.23,West,266,2.0,18.0,80,0.00,,,0.00,Wunderground v.1.15,2013-12-30 22:46:00,
2013-12-30 17:52:00,16.5,11.4,30.23,NW,305,2.0,18.0,80,0.00,,,0.00,Wunderground v.1.15,2013-12-30 22:52:00,
2013-12-30 17:58:00,16.6,11.5,30.22,NW,317,1.0,18.0,80,0.00,,,0.00,Wunderground v.1.15,2013-12-30 22:58:00,
2013-12-30 18:04:00,16.6,11.8,30.22,NW,304,1.0,18.0,81,0.00,,,0.00,Wunderground v.1.15,2013-12-30 23:04:00,
2013-12-30 18:10:00,16.7,11.9,30.22,NW,311,1.0,18.0,81,0.00,,,0.00,Wunderground v.1.15,2013-12-30 23:10:00,
2013-12-30 18:16:00,16.8,11.7,30.22,NW,325,1.0,18.0,80,0.00,,,0.00,Wunderground v.1.15,2013-12-30 23:16:00,
2013-12-30 18:22:00,16.8,12.0,30.22,NW,306,1.0,18.0,81,0.00,,,0.00,Wunderground v.1.15,2013-12-30 23:22:00,
2013-12-30 18:28:00,16.7,11.9,30.22,WNW,300,1.0,18.0,81,0.00,,,0.00,Wunderground v.1.15,2013-12-30 23:28:00,
2013-12-30 18:34:00,16.7,11.6,30.22,West,280,1.0,18.0,80,0.00,,,0.00,Wunderground v.1.15,2013-12-30 23:34:00,
2013-12-30 18:40:00,16.7,11.6,30.22,WNW,285,2.0,18.0,80,0.00,,,0.00,Wunderground v.1.15,2013-12-30 23:40:00,
2013-12-30 18:46:00,16.6,11.5,30.22,WNW,286,1.0,18.0,80,0.00,,,0.00,Wunderground v.1.15,2013-12-30 23:46:00,
2013-12-30 18:52:00,16.6,11.5,30.22,WNW,286,1.0,18.0,80,0.00,,,0.00,Wunderground v.1.15,2013-12-30 23:52:00,
2013-12-30 18:58:00,16.5,11.4,30.22,West,265,2.0,18.0,80,0.00,,,0.00,Wunderground v.1.15,2013-12-30 23:58:00,
2013-12-30 19:04:00,16.3,11.2,30.23,West,271,2.0,18.0,80,0.00,,,0.00,Wunderground v.1.15,2013-12-31 00:04:00,
2013-12-30 19:10:00,16.1,11.0,30.23,West,271,1.0,18.0,80,0.00,,,0.00,Wunderground v.1.15,2013-12-31 00:10:00,
2013-12-30 19:16:00,15.9,11.1,30.23,West,270,1.0,18.0,81,0.00,,,0.00,Wunderground v.1.15,2013-12-31 00:16:00,
2013-12-30 19:22:00,15.9,11.1,30.23,NW,317,2.0,18.0,81,0.00,,,0.00,Wunderground v.1.15,2013-12-31 00:22:00,
2013-12-30 19:28:00,15.9,11.1,30.23,WNW,302,2.0,18.0,81,0.00,,,0.00,Wunderground v.1.15,2013-12-31 00:28:00,
2013-12-30 19:34:00,15.8,11.0,30.23,WNW,289,1.0,18.0,81,0.00,,,0.00,Wunderground v.1.15,2013-12-31 00:34:00,
2013-12-30 19:40:00,15.7,10.9,30.22,WNW,285,1.0,18.0,81,0.00,,,0.00,Wunderground v.1.15,2013-12-31 00:40:00,
2013-12-30 19:46:00,15.6,10.8,30.22,WNW,282,0.0,18.0,81,0.00,,,0.00,Wunderground v.1.15,2013-12-31 00:46:00,
2013-12-30 19:52:00,15.5,11.0,30.22,WNW,282,0.0,18.0,82,0.00,,,0.00,Wunderground v.1.15,2013-12-31 00:52:00,
2013-12-30 19:58:00,15.5,11.0,30.23,WNW,282,1.0,18.0,82,0.00,,,0.00,Wunderground v.1.15,2013-12-31 00:58:00,
2013-12-30 20:04:00,15.6,11.1,30.23,WNW,282,1.0,18.0,82,0.00,,,0.00,Wunderground v.1.15,2013-12-31 01:04:00,
2013-12-30 20:10:00,15.6,11.1,30.23,WNW,282,1.0,1.0,82,0.00,,,0.00,Wunderground v.1.15,2013-12-31 01:10:00,
2013-12-30 20:16:00,15.7,10.9,30.23,West,275,1.0,18.0,81,0.00,,,0.00,Wunderground v.1.15,2013-12-31 01:16:00,
2013-12-30 20:22:00,15.8,11.0,30.22,West,275,1.0,18.0,81,0.00,,,0.00,Wunderground v.1.15,2013-12-31 01:22:00,
2013-12-30 20:28:00,15.9,11.1,30.22,West,275,0.0,18.0,81,0.00,,,0.00,Wunderground v.1.15,2013-12-31 01:28:00,
2013-12-30 20:34:00,16.0,11.2,30.23,West,275,0.0,18.0,81,0.00,,,0.00,Wunderground v.1.15,2013-12-31 01:34:00,
2013-12-30 20:40:00,16.1,11.3,30.23,West,275,0.0,18.0,81,0.00,,,0.00,Wunderground v.1.15,2013-12-31 01:40:00,
2013-12-30 20:46:00,16.2,11.4,30.23,West,275,1.0,18.0,81,0.00,,,0.00,Wunderground v.1.15,2013-12-31 01:46:00,
2013-12-30 20:52:00,16.2,11.7,30.23,West,275,0.0,18.0,82,0.00,,,0.00,Wunderground v.1.15,2013-12-31 01:52:00,
2013-12-30 20:58:00,16.2,11.4,30.23,West,275,0.0,18.0,81,0.00,,,0.00,Wunderground v.1.15,2013-12-31 01:58:00,
2013-12-30 21:04:00,16.3,11.5,30.23,West,275,0.0,18.0,81,0.00,,,0.00,Wunderground v.1.15,2013-12-31 02:04:00,
2013-12-30 21:10:00,16.3,11.5,30.23,NNW,338,1.0,18.0,81,0.00,,,0.00,Wunderground v.1.15,2013-12-31 02:10:00,
2013-12-30 21:16:00,16.3,11.5,30.22,North,355,2.0,18.0,81,0.00,,,0.00,Wunderground v.1.15,2013-12-31 02:16:00,
2013-12-30 21:22:00,16.3,11.8,30.23,North,355,2.0,18.0,82,0.00,,,0.00,Wunderground v.1.15,2013-12-31 02:22:00,
2013-12-30 21:28:00,16.3,11.8,30.23,North,355,1.0,18.0,82,0.00,,,0.00,Wunderground v.1.15,2013-12-31 02:28:00,
2013-12-30 21:34:00,16.3,12.0,30.23,North,355,0.0,18.0,83,0.00,,,0.00,Wunderground v.1.15,2013-12-31 02:34:00,
2013-12-30 21:40:00,16.5,12.2,30.23,WNW,302,1.0,18.0,83,0.00,,,0.00,Wunderground v.1.15,2013-12-31 02:40:00,
2013-12-30 21:46:00,16.4,11.9,30.23,SSW,209,2.0,18.0,82,0.00,,,0.00,Wunderground v.1.15,2013-12-31 02:46:00,
2013-12-30 21:52:00,16.4,11.9,30.23,SSW,205,2.0,18.0,82,0.00,,,0.00,Wunderground v.1.15,2013-12-31 02:52:00,
2013-12-30 21:58:00,16.5,12.2,30.23,SSW,200,2.0,18.0,83,0.00,,,0.00,Wunderground v.1.15,2013-12-31 02:58:00,
2013-12-30 22:04:00,16.5,12.2,30.22,SSW,204,2.0,18.0,83,0.00,,,0.00,Wunderground v.1.15,2013-12-31 03:04:00,
2013-12-30 22:10:00,16.6,12.3,30.22,SSW,203,2.0,2.0,83,0.00,,,0.00,Wunderground v.1.15,2013-12-31 03:10:00,
2013-12-30 22:16:00,16.7,12.4,30.22,SSW,212,2.0,18.0,83,0.00,,,0.00,Wunderground v.1.15,2013-12-31 03:16:00,
2013-12-30 22:22:00,16.7,12.4,30.22,SSW,207,2.0,3.0,83,0.00,,,0.00,Wunderground v.1.15,2013-12-31 03:22:00,
2013-12-30 22:28:00,16.8,12.5,30.22,SSW,202,2.0,18.0,83,0.00,,,0.00,Wunderground v.1.15,2013-12-31 03:28:00,
2013-12-30 22:34:00,16.8,12.5,30.22,SSW,201,2.0,18.0,83,0.00,,,0.00,Wunderground v.1.15,2013-12-31 03:34:00,
2013-12-30 22:40:00,16.9,12.6,30.22,SSW,209,2.0,18.0,83,0.00,,,0.00,Wunderground v.1.15,2013-12-31 03:40:00,
2013-12-30 22:46:00,16.9,12.6,30.22,SSW,200,2.0,18.0,83,0.00,,,0.00,Wunderground v.1.15,2013-12-31 03:46:00,
2013-12-30 22:52:00,16.9,12.6,30.22,SSW,200,3.0,18.0,83,0.00,,,0.00,Wunderground v.1.15,2013-12-31 03:52:00,
2013-12-30 22:58:00,16.9,12.6,30.22,SSW,209,3.0,18.0,83,0.00,,,0.00,Wunderground v.1.15,2013-12-31 03:58:00,
2013-12-30 23:04:00,16.9,12.9,30.22,SSW,208,2.0,18.0,84,0.00,,,0.00,Wunderground v.1.15,2013-12-31 04:04:00,
2013-12-30 23:10:00,17.0,13.0,30.22,SSW,211,2.0,2.0,84,0.00,,,0.00,Wunderground v.1.15,2013-12-31 04:10:00,
2013-12-30 23:16:00,17.1,13.1,30.22,SW,219,2.0,18.0,84,0.00,,,0.00,Wunderground v.1.15,2013-12-31 04:16:00,
2013-12-30 23:22:00,17.1,13.1,30.21,SW,218,1.0,18.0,84,0.00,,,0.00,Wunderground v.1.15,2013-12-31 04:22:00,
2013-12-30 23:28:00,17.1,13.1,30.21,SW,220,1.0,18.0,84,0.00,,,0.00,Wunderground v.1.15,2013-12-31 04:28:00,
2013-12-30 23:34:00,17.1,13.1,30.21,SW,220,1.0,18.0,84,0.00,,,0.00,Wunderground v.1.15,2013-12-31 04:34:00,
2013-12-30 23:40:00,17.1,13.1,30.21,SW,226,1.0,18.0,84,0.00,,,0.00,Wunderground v.1.15,2013-12-31 04:40:00,
2013-12-30 23:46:00,17.1,13.1,30.20,SW,229,2.0,18.0,84,0.00,,,0.00,Wunderground v.1.15,2013-12-31 04:46:00,
2013-12-30 23:52:00,17.1,13.1,30.20,SW,229,1.0,18.0,84,0.00,,,0.00,Wunderground v.1.15,2013-12-31 04:52:00,
2013-12-30 23:56:00,17.1,13.1,30.20,SW,229,1.0,18.0,84,0.00,,,0.00,Wunderground v.1.15,2013-12-31 04:56:00,